Terminal Aerodrome Forecast
Issued by NWS

Current Version | Previous Version | Graphics & Text | Print | Product List | Glossary On
Versions: 1 2 3 4 5 6 7 8 9 10 11 12 13 14 15 16 17 18 19
304
FTUS41 KILN 160534
TAFLCK
TAF
KLCK 160534Z 1606/1706 04003KT 5SM BR VCSH OVC008
     FM161800 11006KT 5SM BR OVC012
     FM170200 14004KT P6SM VCSH OVC009
      AMD NOT SKED=

USA.gov is the U.S. government's official web portal to all federal, state and local government web resources and services.